Portada
METAR-TAF:

METAR-TAF

Aeroports :

Agartala, Índia

latitud: 23-53-24N, longitud: 91-14-32E, altitud: 14 m

Observació

L'informe es va fer fa 6 hores i 41 minuts, a les 13:30 UTC
Vent calma
Temperatura 29°C
Humitat 94%
Pressió 1004 hPa
Visibilitat: 5000 m
Escasses núvols a una alçada de 2000 ft
boirina

METAR: VEAT 291330Z 00000KT 5000 BR FEW020 29/28 Q1004 NOSIG

Hora: 01:41 (20:11 UTC)

Pronòstic

L'informe es va fer fa 3 hores i 11 minuts, a les 17:00 UTC
Pronòstic vàlid del 29 a les 18 UTC al 30 a les 03 UTC
Vent kt del Nord
Visibilitat: 3000 m
Núvols disperses a una alçada de 1800 ft
Cel ennuvolat a una alçada de 10000 ft
boirina
Evolucionant progressivament
l' 30 a les 01 UTC al 30 a les 03 UTC
Visibilitat: 3500 m
Núvols disperses a una alçada de 1800 ft
Escasses núvols a una alçada de 2500 ft, Cumulonimbus.
Cel ennuvolat a una alçada de 10000 ft
boirina

TAF: VEAT 291700Z 2918/3003 00000KT 3000 U2013RA BR SCT018 BKN100 BECMG 3001/3003 3500 U2013TSRA BR SCT018 FEW025CB BKN100

Observacions i pronòstics meteorològics de més de 4000 aeroports (METAR i TAF).

Les estacions disponibles són els punts grocs i vermells al mapa.

Posi el ratolí al punt desitjat per veure el nom de l'estació.

Feu clic per veure les observacions i els pronòstics meteorològics.

Per canviar el mapa: feu clic els botons verds amb una creu de color negre per apropar; al botó verd amb un guió per allunyar la imatge; o en les fletxes verdes per a mapes adjacents.


METAR-TAF: